sensor_id;sensor_type;location;lat;lon;timestamp;temperature;humidity
23120;DHT22;11729;50.836;4.330;2023-08-01T00:00:38;17.80;99.90
23120;DHT22;11729;50.836;4.330;2023-08-01T00:03:04;17.80;99.90
23120;DHT22;11729;50.836;4.330;2023-08-01T00:05:29;17.80;99.90
23120;DHT22;11729;50.836;4.330;2023-08-01T00:07:55;17.80;99.90
23120;DHT22;11729;50.836;4.330;2023-08-01T00:10:21;17.70;99.90
23120;DHT22;11729;50.836;4.330;2023-08-01T00:12:47;17.70;99.90
23120;DHT22;11729;50.836;4.330;2023-08-01T00:15:13;17.70;99.90
23120;DHT22;11729;50.836;4.330;2023-08-01T00:17:39;17.60;99.90
23120;DHT22;11729;50.836;4.330;2023-08-01T00:20:07;17.60;99.90
23120;DHT22;11729;50.836;4.330;2023-08-01T00:22:32;17.60;99.90
23120;DHT22;11729;50.836;4.330;2023-08-01T00:24:58;17.50;99.90
23120;DHT22;11729;50.836;4.330;2023-08-01T00:27:25;17.50;99.90
23120;DHT22;11729;50.836;4.330;2023-08-01T00:29:50;17.50;99.90
23120;DHT22;11729;50.836;4.330;2023-08-01T00:32:16;17.60;99.90
23120;DHT22;11729;50.836;4.330;2023-08-01T00:34:41;17.60;99.90
23120;DHT22;11729;50.836;4.330;2023-08-01T00:37:07;17.60;99.90
23120;DHT22;11729;50.836;4.330;2023-08-01T00:39:33;17.50;99.90
23120;DHT22;11729;50.836;4.330;2023-08-01T00:41:59;17.50;99.90
23120;DHT22;11729;50.836;4.330;2023-08-01T00:44:25;17.40;99.90
23120;DHT22;11729;50.836;4.330;2023-08-01T00:46:50;17.40;99.90
23120;DHT22;11729;50.836;4.330;2023-08-01T00:49:16;17.40;99.90
23120;DHT22;11729;50.836;4.330;2023-08-01T00:51:43;17.30;99.90
23120;DHT22;11729;50.836;4.330;2023-08-01T00:54:09;17.40;99.90
23120;DHT22;11729;50.836;4.330;2023-08-01T00:56:36;17.50;99.90
23120;DHT22;11729;50.836;4.330;2023-08-01T00:59:01;17.40;99.90
23120;DHT22;11729;50.836;4.330;2023-08-01T01:01:27;17.30;99.90
23120;DHT22;11729;50.836;4.330;2023-08-01T01:03:53;17.30;99.90
23120;DHT22;11729;50.836;4.330;2023-08-01T01:06:24;17.20;99.90
23120;DHT22;11729;50.836;4.330;2023-08-01T01:08:53;17.10;99.90
23120;DHT22;11729;50.836;4.330;2023-08-01T01:11:20;17.20;99.90
23120;DHT22;11729;50.836;4.330;2023-08-01T01:13:47;17.20;99.90
23120;DHT22;11729;50.836;4.330;2023-08-01T01:16:13;17.20;99.90
23120;DHT22;11729;50.836;4.330;2023-08-01T01:18:39;17.20;99.90
23120;DHT22;11729;50.836;4.330;2023-08-01T01:21:04;17.20;99.90
23120;DHT22;11729;50.836;4.330;2023-08-01T01:23:31;17.20;99.90
23120;DHT22;11729;50.836;4.330;2023-08-01T01:25:58;17.10;99.90
23120;DHT22;11729;50.836;4.330;2023-08-01T01:28:24;17.10;99.90
23120;DHT22;11729;50.836;4.330;2023-08-01T01:30:51;17.10;99.90
23120;DHT22;11729;50.836;4.330;2023-08-01T01:33:18;17.10;99.90
23120;DHT22;11729;50.836;4.330;2023-08-01T01:35:44;17.20;99.90
23120;DHT22;11729;50.836;4.330;2023-08-01T01:38:09;17.20;99.90
23120;DHT22;11729;50.836;4.330;2023-08-01T01:40:36;17.10;99.90
23120;DHT22;11729;50.836;4.330;2023-08-01T01:43:03;17.20;99.90
23120;DHT22;11729;50.836;4.330;2023-08-01T01:45:28;17.30;99.90
23120;DHT22;11729;50.836;4.330;2023-08-01T01:47:54;17.20;99.90
23120;DHT22;11729;50.836;4.330;2023-08-01T01:50:20;17.20;99.90
23120;DHT22;11729;50.836;4.330;2023-08-01T01:52:46;17.10;99.90
23120;DHT22;11729;50.836;4.330;2023-08-01T01:55:11;17.00;99.90
23120;DHT22;11729;50.836;4.330;2023-08-01T01:57:37;17.10;99.90
23120;DHT22;11729;50.836;4.330;2023-08-01T02:00:04;17.00;99.90
23120;DHT22;11729;50.836;4.330;2023-08-01T02:02:30;17.00;99.90
23120;DHT22;11729;50.836;4.330;2023-08-01T02:04:55;17.00;99.90
23120;DHT22;11729;50.836;4.330;2023-08-01T02:07:21;17.00;99.90
23120;DHT22;11729;50.836;4.330;2023-08-01T02:09:46;17.00;99.90
23120;DHT22;11729;50.836;4.330;2023-08-01T02:12:12;16.90;99.90
23120;DHT22;11729;50.836;4.330;2023-08-01T02:14:40;16.90;99.90
23120;DHT22;11729;50.836;4.330;2023-08-01T02:17:07;16.80;99.90
23120;DHT22;11729;50.836;4.330;2023-08-01T02:19:33;16.80;99.90
23120;DHT22;11729;50.836;4.330;2023-08-01T02:22:00;16.90;99.90
23120;DHT22;11729;50.836;4.330;2023-08-01T02:24:25;17.00;99.90
23120;DHT22;11729;50.836;4.330;2023-08-01T02:26:51;17.00;99.90
23120;DHT22;11729;50.836;4.330;2023-08-01T02:29:17;17.10;99.90
23120;DHT22;11729;50.836;4.330;2023-08-01T02:31:42;17.20;99.90
23120;DHT22;11729;50.836;4.330;2023-08-01T02:34:08;17.10;99.90
23120;DHT22;11729;50.836;4.330;2023-08-01T02:36:34;17.10;99.90
23120;DHT22;11729;50.836;4.330;2023-08-01T02:38:59;17.20;99.90
23120;DHT22;11729;50.836;4.330;2023-08-01T02:41:25;17.20;99.90
23120;DHT22;11729;50.836;4.330;2023-08-01T02:43:51;17.30;99.90
23120;DHT22;11729;50.836;4.330;2023-08-01T02:46:16;17.40;99.90
23120;DHT22;11729;50.836;4.330;2023-08-01T02:48:42;17.40;99.90
23120;DHT22;11729;50.836;4.330;2023-08-01T02:51:08;17.20;99.90
23120;DHT22;11729;50.836;4.330;2023-08-01T02:53:35;17.10;99.90
23120;DHT22;11729;50.836;4.330;2023-08-01T02:56:01;17.00;99.90
23120;DHT22;11729;50.836;4.330;2023-08-01T02:58:28;17.00;99.90
23120;DHT22;11729;50.836;4.330;2023-08-01T03:00:54;17.00;99.90
23120;DHT22;11729;50.836;4.330;2023-08-01T03:03:20;17.10;99.90
23120;DHT22;11729;50.836;4.330;2023-08-01T03:05:45;17.00;99.90
23120;DHT22;11729;50.836;4.330;2023-08-01T03:08:11;17.00;99.90
23120;DHT22;11729;50.836;4.330;2023-08-01T03:10:37;17.00;99.90
23120;DHT22;11729;50.836;4.330;2023-08-01T03:13:03;17.00;99.90
23120;DHT22;11729;50.836;4.330;2023-08-01T03:15:29;17.20;99.90
23120;DHT22;11729;50.836;4.330;2023-08-01T03:17:54;17.20;99.90
23120;DHT22;11729;50.836;4.330;2023-08-01T03:20:21;17.00;99.90
23120;DHT22;11729;50.836;4.330;2023-08-01T03:22:48;17.00;99.90
23120;DHT22;11729;50.836;4.330;2023-08-01T03:25:15;17.10;99.90
23120;DHT22;11729;50.836;4.330;2023-08-01T03:27:41;17.20;99.90
23120;DHT22;11729;50.836;4.330;2023-08-01T03:30:08;17.20;99.90
23120;DHT22;11729;50.836;4.330;2023-08-01T03:32:35;17.40;99.90
23120;DHT22;11729;50.836;4.330;2023-08-01T03:35:03;17.30;99.90
23120;DHT22;11729;50.836;4.330;2023-08-01T03:37:29;17.40;99.90
23120;DHT22;11729;50.836;4.330;2023-08-01T03:39:54;17.40;99.90
23120;DHT22;11729;50.836;4.330;2023-08-01T03:42:20;17.40;99.90
23120;DHT22;11729;50.836;4.330;2023-08-01T03:44:46;17.50;99.90
23120;DHT22;11729;50.836;4.330;2023-08-01T03:47:11;17.50;99.90
23120;DHT22;11729;50.836;4.330;2023-08-01T03:49:37;17.50;99.90
23120;DHT22;11729;50.836;4.330;2023-08-01T03:52:05;17.40;99.90
23120;DHT22;11729;50.836;4.330;2023-08-01T03:54:31;17.40;99.90
23120;DHT22;11729;50.836;4.330;2023-08-01T03:56:56;17.50;99.90
23120;DHT22;11729;50.836;4.330;2023-08-01T03:59:22;17.40;99.90
23120;DHT22;11729;50.836;4.330;2023-08-01T04:01:47;17.30;99.90
23120;DHT22;11729;50.836;4.330;2023-08-01T04:04:13;17.20;99.90
23120;DHT22;11729;50.836;4.330;2023-08-01T04:06:39;17.30;99.90
23120;DHT22;11729;50.836;4.330;2023-08-01T04:09:05;17.10;99.90
23120;DHT22;11729;50.836;4.330;2023-08-01T04:11:32;17.10;99.90
23120;DHT22;11729;50.836;4.330;2023-08-01T04:13:58;17.00;99.90
23120;DHT22;11729;50.836;4.330;2023-08-01T04:16:23;17.00;99.90
23120;DHT22;11729;50.836;4.330;2023-08-01T04:18:49;17.00;99.90
23120;DHT22;11729;50.836;4.330;2023-08-01T04:21:15;17.00;99.90
23120;DHT22;11729;50.836;4.330;2023-08-01T04:23:41;17.20;99.90
23120;DHT22;11729;50.836;4.330;2023-08-01T04:26:07;17.30;99.90
23120;DHT22;11729;50.836;4.330;2023-08-01T04:28:33;17.20;99.90
23120;DHT22;11729;50.836;4.330;2023-08-01T04:30:59;17.20;99.90
23120;DHT22;11729;50.836;4.330;2023-08-01T04:33:25;17.20;99.90
23120;DHT22;11729;50.836;4.330;2023-08-01T04:35:51;17.10;99.90
23120;DHT22;11729;50.836;4.330;2023-08-01T04:38:17;17.10;99.90
23120;DHT22;11729;50.836;4.330;2023-08-01T04:40:43;17.00;99.90
23120;DHT22;11729;50.836;4.330;2023-08-01T04:43:09;17.00;99.90
23120;DHT22;11729;50.836;4.330;2023-08-01T04:45:35;17.10;99.90
23120;DHT22;11729;50.836;4.330;2023-08-01T04:48:01;17.20;99.90
23120;DHT22;11729;50.836;4.330;2023-08-01T04:50:27;17.10;99.90
23120;DHT22;11729;50.836;4.330;2023-08-01T04:52:53;17.10;99.90
23120;DHT22;11729;50.836;4.330;2023-08-01T04:55:19;17.10;99.90
23120;DHT22;11729;50.836;4.330;2023-08-01T04:57:44;17.20;99.90
23120;DHT22;11729;50.836;4.330;2023-08-01T05:00:10;17.30;99.90
23120;DHT22;11729;50.836;4.330;2023-08-01T05:02:37;17.30;99.90
23120;DHT22;11729;50.836;4.330;2023-08-01T05:05:03;17.30;99.90
23120;DHT22;11729;50.836;4.330;2023-08-01T05:07:29;17.30;99.90
23120;DHT22;11729;50.836;4.330;2023-08-01T05:09:55;17.40;99.90
23120;DHT22;11729;50.836;4.330;2023-08-01T05:12:21;17.40;99.90
23120;DHT22;11729;50.836;4.330;2023-08-01T05:14:47;17.60;99.90
23120;DHT22;11729;50.836;4.330;2023-08-01T05:17:12;17.60;99.90
23120;DHT22;11729;50.836;4.330;2023-08-01T05:19:38;17.60;99.90
23120;DHT22;11729;50.836;4.330;2023-08-01T05:22:04;17.70;99.90
23120;DHT22;11729;50.836;4.330;2023-08-01T05:24:30;17.80;99.90
23120;DHT22;11729;50.836;4.330;2023-08-01T05:26:55;17.90;99.90
23120;DHT22;11729;50.836;4.330;2023-08-01T05:29:21;18.00;99.90
23120;DHT22;11729;50.836;4.330;2023-08-01T05:31:47;18.10;99.90
23120;DHT22;11729;50.836;4.330;2023-08-01T05:34:12;17.90;99.90
23120;DHT22;11729;50.836;4.330;2023-08-01T05:36:38;17.80;99.90
23120;DHT22;11729;50.836;4.330;2023-08-01T05:39:04;17.90;99.90
23120;DHT22;11729;50.836;4.330;2023-08-01T05:41:29;18.00;99.90
23120;DHT22;11729;50.836;4.330;2023-08-01T05:43:56;18.00;99.90
23120;DHT22;11729;50.836;4.330;2023-08-01T05:46:22;17.90;99.90
23120;DHT22;11729;50.836;4.330;2023-08-01T05:48:47;18.00;99.90
23120;DHT22;11729;50.836;4.330;2023-08-01T05:51:13;18.30;99.90
23120;DHT22;11729;50.836;4.330;2023-08-01T05:53:40;18.10;99.90
23120;DHT22;11729;50.836;4.330;2023-08-01T05:56:07;18.10;99.90
23120;DHT22;11729;50.836;4.330;2023-08-01T05:58:32;18.30;99.90
23120;DHT22;11729;50.836;4.330;2023-08-01T06:00:58;18.40;99.90
23120;DHT22;11729;50.836;4.330;2023-08-01T06:03:23;18.30;99.90
23120;DHT22;11729;50.836;4.330;2023-08-01T06:05:49;18.30;99.90
23120;DHT22;11729;50.836;4.330;2023-08-01T06:08:15;18.40;99.90
23120;DHT22;11729;50.836;4.330;2023-08-01T06:10:41;18.40;99.90
23120;DHT22;11729;50.836;4.330;2023-08-01T06:13:07;18.50;99.90
23120;DHT22;11729;50.836;4.330;2023-08-01T06:15:33;18.40;99.90
23120;DHT22;11729;50.836;4.330;2023-08-01T06:17:59;18.60;99.90
23120;DHT22;11729;50.836;4.330;2023-08-01T06:20:24;18.50;99.90
23120;DHT22;11729;50.836;4.330;2023-08-01T06:22:50;18.70;99.90
23120;DHT22;11729;50.836;4.330;2023-08-01T06:25:16;19.00;99.90
23120;DHT22;11729;50.836;4.330;2023-08-01T06:27:41;19.30;99.90
23120;DHT22;11729;50.836;4.330;2023-08-01T06:30:07;19.30;99.90
23120;DHT22;11729;50.836;4.330;2023-08-01T06:32:33;19.60;99.90
23120;DHT22;11729;50.836;4.330;2023-08-01T06:34:59;19.60;99.90
23120;DHT22;11729;50.836;4.330;2023-08-01T06:37:24;19.60;99.90
23120;DHT22;11729;50.836;4.330;2023-08-01T06:39:50;19.70;99.90
23120;DHT22;11729;50.836;4.330;2023-08-01T06:42:16;19.50;99.90
23120;DHT22;11729;50.836;4.330;2023-08-01T06:44:41;19.40;99.90
23120;DHT22;11729;50.836;4.330;2023-08-01T06:47:07;19.40;99.90
23120;DHT22;11729;50.836;4.330;2023-08-01T06:49:33;19.30;99.90
23120;DHT22;11729;50.836;4.330;2023-08-01T06:51:58;19.40;99.90
23120;DHT22;11729;50.836;4.330;2023-08-01T06:54:24;19.40;99.90
23120;DHT22;11729;50.836;4.330;2023-08-01T06:56:50;19.60;99.90
23120;DHT22;11729;50.836;4.330;2023-08-01T06:59:15;19.70;99.90
23120;DHT22;11729;50.836;4.330;2023-08-01T07:01:42;20.30;99.90
23120;DHT22;11729;50.836;4.330;2023-08-01T07:04:12;20.90;99.90
23120;DHT22;11729;50.836;4.330;2023-08-01T07:06:38;21.20;99.90
23120;DHT22;11729;50.836;4.330;2023-08-01T07:09:06;21.20;99.90
23120;DHT22;11729;50.836;4.330;2023-08-01T07:11:31;21.00;99.90
23120;DHT22;11729;50.836;4.330;2023-08-01T07:13:57;21.00;99.90
23120;DHT22;11729;50.836;4.330;2023-08-01T07:16:23;20.90;99.90
23120;DHT22;11729;50.836;4.330;2023-08-01T07:18:48;20.80;99.90
23120;DHT22;11729;50.836;4.330;2023-08-01T07:21:15;21.00;99.90
23120;DHT22;11729;50.836;4.330;2023-08-01T07:23:41;20.80;99.90
23120;DHT22;11729;50.836;4.330;2023-08-01T07:26:07;20.50;99.90
23120;DHT22;11729;50.836;4.330;2023-08-01T07:28:33;20.40;99.90
23120;DHT22;11729;50.836;4.330;2023-08-01T07:31:03;20.70;99.90
23120;DHT22;11729;50.836;4.330;2023-08-01T07:33:30;20.50;99.90
23120;DHT22;11729;50.836;4.330;2023-08-01T07:35:58;20.30;99.90
23120;DHT22;11729;50.836;4.330;2023-08-01T07:38:25;20.30;99.90
23120;DHT22;11729;50.836;4.330;2023-08-01T07:40:52;20.40;99.90
23120;DHT22;11729;50.836;4.330;2023-08-01T07:43:18;20.50;99.90
23120;DHT22;11729;50.836;4.330;2023-08-01T07:45:44;20.80;99.90
23120;DHT22;11729;50.836;4.330;2023-08-01T07:48:10;21.00;99.90
23120;DHT22;11729;50.836;4.330;2023-08-01T07:50:36;21.20;99.90
23120;DHT22;11729;50.836;4.330;2023-08-01T07:53:01;21.30;99.90
23120;DHT22;11729;50.836;4.330;2023-08-01T07:55:27;21.60;99.90
23120;DHT22;11729;50.836;4.330;2023-08-01T07:57:52;21.20;99.90
23120;DHT22;11729;50.836;4.330;2023-08-01T08:00:18;21.40;99.90
23120;DHT22;11729;50.836;4.330;2023-08-01T08:02:45;21.30;99.90
23120;DHT22;11729;50.836;4.330;2023-08-01T08:05:12;21.90;99.90
23120;DHT22;11729;50.836;4.330;2023-08-01T08:07:38;23.20;99.90
23120;DHT22;11729;50.836;4.330;2023-08-01T08:10:04;23.70;99.90
23120;DHT22;11729;50.836;4.330;2023-08-01T08:12:30;24.00;99.90
23120;DHT22;11729;50.836;4.330;2023-08-01T08:14:56;23.80;99.90
23120;DHT22;11729;50.836;4.330;2023-08-01T08:17:22;23.60;99.90
23120;DHT22;11729;50.836;4.330;2023-08-01T08:19:48;23.60;99.90
23120;DHT22;11729;50.836;4.330;2023-08-01T08:22:14;23.40;99.90
23120;DHT22;11729;50.836;4.330;2023-08-01T08:24:40;23.40;99.90
23120;DHT22;11729;50.836;4.330;2023-08-01T08:27:05;24.00;99.90
23120;DHT22;11729;50.836;4.330;2023-08-01T08:29:32;25.00;99.90
23120;DHT22;11729;50.836;4.330;2023-08-01T08:31:59;25.20;99.90
23120;DHT22;11729;50.836;4.330;2023-08-01T08:34:24;26.50;99.90
23120;DHT22;11729;50.836;4.330;2023-08-01T08:36:50;26.70;99.90
23120;DHT22;11729;50.836;4.330;2023-08-01T08:39:16;27.70;99.90
23120;DHT22;11729;50.836;4.330;2023-08-01T08:41:46;27.30;99.90
23120;DHT22;11729;50.836;4.330;2023-08-01T08:44:17;27.40;99.90
23120;DHT22;11729;50.836;4.330;2023-08-01T08:46:53;27.80;99.90
23120;DHT22;11729;50.836;4.330;2023-08-01T08:49:20;27.80;99.90
23120;DHT22;11729;50.836;4.330;2023-08-01T08:51:47;28.20;99.90
23120;DHT22;11729;50.836;4.330;2023-08-01T08:54:14;29.30;99.90
23120;DHT22;11729;50.836;4.330;2023-08-01T08:56:41;29.70;99.90
23120;DHT22;11729;50.836;4.330;2023-08-01T08:59:10;29.10;99.90
23120;DHT22;11729;50.836;4.330;2023-08-01T09:01:37;28.30;99.90
23120;DHT22;11729;50.836;4.330;2023-08-01T09:04:03;27.00;99.90
23120;DHT22;11729;50.836;4.330;2023-08-01T09:06:45;26.40;99.90
23120;DHT22;11729;50.836;4.330;2023-08-01T09:09:13;26.00;99.90
23120;DHT22;11729;50.836;4.330;2023-08-01T09:11:42;26.10;99.90
23120;DHT22;11729;50.836;4.330;2023-08-01T09:14:09;25.90;99.90
23120;DHT22;11729;50.836;4.330;2023-08-01T09:16:35;25.40;99.90
23120;DHT22;11729;50.836;4.330;2023-08-01T09:19:01;25.00;99.90
23120;DHT22;11729;50.836;4.330;2023-08-01T09:21:32;25.40;99.90
23120;DHT22;11729;50.836;4.330;2023-08-01T09:24:18;26.50;99.90
23120;DHT22;11729;50.836;4.330;2023-08-01T09:26:48;26.60;99.90
23120;DHT22;11729;50.836;4.330;2023-08-01T09:29:16;26.50;99.90
23120;DHT22;11729;50.836;4.330;2023-08-01T09:31:43;26.60;99.90
23120;DHT22;11729;50.836;4.330;2023-08-01T09:34:25;26.10;99.90
23120;DHT22;11729;50.836;4.330;2023-08-01T09:36:58;25.60;99.90
23120;DHT22;11729;50.836;4.330;2023-08-01T09:39:24;25.20;99.90
23120;DHT22;11729;50.836;4.330;2023-08-01T09:42:00;24.50;99.90
23120;DHT22;11729;50.836;4.330;2023-08-01T09:44:28;24.10;99.90
23120;DHT22;11729;50.836;4.330;2023-08-01T09:47:02;24.00;99.90
23120;DHT22;11729;50.836;4.330;2023-08-01T09:49:30;24.20;99.90
23120;DHT22;11729;50.836;4.330;2023-08-01T09:51:56;24.30;99.90
23120;DHT22;11729;50.836;4.330;2023-08-01T09:54:23;24.40;99.90
23120;DHT22;11729;50.836;4.330;2023-08-01T09:56:50;24.50;99.90
23120;DHT22;11729;50.836;4.330;2023-08-01T09:59:21;24.80;99.90
23120;DHT22;11729;50.836;4.330;2023-08-01T10:01:55;24.80;99.90
23120;DHT22;11729;50.836;4.330;2023-08-01T10:04:30;25.30;99.90
23120;DHT22;11729;50.836;4.330;2023-08-01T10:07:07;26.00;99.90
23120;DHT22;11729;50.836;4.330;2023-08-01T10:09:33;26.30;99.90
23120;DHT22;11729;50.836;4.330;2023-08-01T10:12:02;26.30;99.90
23120;DHT22;11729;50.836;4.330;2023-08-01T10:14:28;26.50;99.90
23120;DHT22;11729;50.836;4.330;2023-08-01T10:16:55;26.70;99.90
23120;DHT22;11729;50.836;4.330;2023-08-01T10:19:22;26.30;99.90
23120;DHT22;11729;50.836;4.330;2023-08-01T10:21:49;26.40;99.90
23120;DHT22;11729;50.836;4.330;2023-08-01T10:24:15;26.80;99.90
23120;DHT22;11729;50.836;4.330;2023-08-01T10:26:44;26.60;99.90
23120;DHT22;11729;50.836;4.330;2023-08-01T10:29:11;26.00;99.90
23120;DHT22;11729;50.836;4.330;2023-08-01T10:31:37;26.20;99.90
23120;DHT22;11729;50.836;4.330;2023-08-01T10:34:06;26.20;99.90
23120;DHT22;11729;50.836;4.330;2023-08-01T10:36:32;26.80;99.90
23120;DHT22;11729;50.836;4.330;2023-08-01T10:39:00;26.90;99.90
23120;DHT22;11729;50.836;4.330;2023-08-01T10:44:04;26.10;99.90
23120;DHT22;11729;50.836;4.330;2023-08-01T10:46:33;25.90;99.90
23120;DHT22;11729;50.836;4.330;2023-08-01T10:49:10;25.70;99.90
23120;DHT22;11729;50.836;4.330;2023-08-01T10:51:35;25.40;99.90
23120;DHT22;11729;50.836;4.330;2023-08-01T10:54:01;25.20;99.90
23120;DHT22;11729;50.836;4.330;2023-08-01T10:56:28;25.50;99.90
23120;DHT22;11729;50.836;4.330;2023-08-01T10:58:54;25.50;99.90
23120;DHT22;11729;50.836;4.330;2023-08-01T11:01:20;25.20;99.90
23120;DHT22;11729;50.836;4.330;2023-08-01T11:03:45;25.00;99.90
23120;DHT22;11729;50.836;4.330;2023-08-01T11:06:11;25.20;99.90
23120;DHT22;11729;50.836;4.330;2023-08-01T11:08:39;25.50;99.90
23120;DHT22;11729;50.836;4.330;2023-08-01T11:11:11;26.00;99.90
23120;DHT22;11729;50.836;4.330;2023-08-01T11:13:38;26.60;99.90
23120;DHT22;11729;50.836;4.330;2023-08-01T11:16:04;27.20;99.90
23120;DHT22;11729;50.836;4.330;2023-08-01T11:18:44;27.90;99.90
23120;DHT22;11729;50.836;4.330;2023-08-01T11:21:10;27.70;99.90
23120;DHT22;11729;50.836;4.330;2023-08-01T11:23:36;27.30;99.90
23120;DHT22;11729;50.836;4.330;2023-08-01T11:26:08;27.20;99.90
23120;DHT22;11729;50.836;4.330;2023-08-01T11:28:34;27.40;98.40
23120;DHT22;11729;50.836;4.330;2023-08-01T11:30:59;27.00;98.90
23120;DHT22;11729;50.836;4.330;2023-08-01T11:33:25;26.90;99.10
23120;DHT22;11729;50.836;4.330;2023-08-01T11:35:54;26.50;99.80
23120;DHT22;11729;50.836;4.330;2023-08-01T11:38:26;26.10;99.70
23120;DHT22;11729;50.836;4.330;2023-08-01T11:40:57;25.90;99.90
23120;DHT22;11729;50.836;4.330;2023-08-01T11:43:23;26.10;99.90
23120;DHT22;11729;50.836;4.330;2023-08-01T11:45:53;26.80;99.30
23120;DHT22;11729;50.836;4.330;2023-08-01T11:48:25;26.30;98.50
23120;DHT22;11729;50.836;4.330;2023-08-01T11:51:02;26.00;98.40
23120;DHT22;11729;50.836;4.330;2023-08-01T11:53:28;26.30;99.80
23120;DHT22;11729;50.836;4.330;2023-08-01T11:55:54;26.60;98.90
23120;DHT22;11729;50.836;4.330;2023-08-01T11:58:35;27.30;97.90
23120;DHT22;11729;50.836;4.330;2023-08-01T12:01:04;28.00;97.90
23120;DHT22;11729;50.836;4.330;2023-08-01T12:03:30;28.40;97.70
23120;DHT22;11729;50.836;4.330;2023-08-01T12:06:05;29.10;97.40
23120;DHT22;11729;50.836;4.330;2023-08-01T12:08:34;29.70;94.90
23120;DHT22;11729;50.836;4.330;2023-08-01T12:11:00;29.10;92.40
23120;DHT22;11729;50.836;4.330;2023-08-01T12:13:26;28.70;92.50
23120;DHT22;11729;50.836;4.330;2023-08-01T12:15:54;27.90;94.90
23120;DHT22;11729;50.836;4.330;2023-08-01T12:18:27;27.40;95.00
23120;DHT22;11729;50.836;4.330;2023-08-01T12:20:53;26.80;96.60
23120;DHT22;11729;50.836;4.330;2023-08-01T12:23:19;26.70;97.70
23120;DHT22;11729;50.836;4.330;2023-08-01T12:25:46;26.60;97.60
23120;DHT22;11729;50.836;4.330;2023-08-01T12:28:14;26.00;99.00
23120;DHT22;11729;50.836;4.330;2023-08-01T12:30:40;25.70;99.90
23120;DHT22;11729;50.836;4.330;2023-08-01T12:33:09;25.40;99.90
23120;DHT22;11729;50.836;4.330;2023-08-01T12:35:39;25.20;99.90
23120;DHT22;11729;50.836;4.330;2023-08-01T12:38:04;24.90;99.90
23120;DHT22;11729;50.836;4.330;2023-08-01T12:40:30;24.70;99.90
23120;DHT22;11729;50.836;4.330;2023-08-01T12:42:56;24.50;99.90
23120;DHT22;11729;50.836;4.330;2023-08-01T12:45:21;24.30;99.90
23120;DHT22;11729;50.836;4.330;2023-08-01T12:47:48;24.00;99.90
23120;DHT22;11729;50.836;4.330;2023-08-01T12:50:14;23.60;99.90
23120;DHT22;11729;50.836;4.330;2023-08-01T12:52:40;23.50;99.90
23120;DHT22;11729;50.836;4.330;2023-08-01T12:55:06;23.10;99.90
23120;DHT22;11729;50.836;4.330;2023-08-01T12:57:33;22.50;99.90
23120;DHT22;11729;50.836;4.330;2023-08-01T12:59:59;22.40;99.90
23120;DHT22;11729;50.836;4.330;2023-08-01T13:02:24;22.40;99.90
23120;DHT22;11729;50.836;4.330;2023-08-01T13:04:50;22.50;99.90
23120;DHT22;11729;50.836;4.330;2023-08-01T13:07:15;22.50;99.90
23120;DHT22;11729;50.836;4.330;2023-08-01T13:09:42;22.50;99.90
23120;DHT22;11729;50.836;4.330;2023-08-01T13:12:07;22.50;99.90
23120;DHT22;11729;50.836;4.330;2023-08-01T13:14:33;23.00;99.90
23120;DHT22;11729;50.836;4.330;2023-08-01T13:16:59;24.80;99.90
23120;DHT22;11729;50.836;4.330;2023-08-01T13:19:25;26.40;99.90
23120;DHT22;11729;50.836;4.330;2023-08-01T13:21:51;28.30;99.90
23120;DHT22;11729;50.836;4.330;2023-08-01T13:24:17;29.90;97.40
23120;DHT22;11729;50.836;4.330;2023-08-01T13:26:42;30.90;93.10
23120;DHT22;11729;50.836;4.330;2023-08-01T13:29:08;32.00;90.70
23120;DHT22;11729;50.836;4.330;2023-08-01T13:31:34;32.00;89.00
23120;DHT22;11729;50.836;4.330;2023-08-01T13:33:59;32.10;84.30
23120;DHT22;11729;50.836;4.330;2023-08-01T13:36:25;31.70;82.50
23120;DHT22;11729;50.836;4.330;2023-08-01T13:38:51;30.20;81.20
23120;DHT22;11729;50.836;4.330;2023-08-01T13:41:16;28.30;85.20
23120;DHT22;11729;50.836;4.330;2023-08-01T13:43:42;27.10;89.80
23120;DHT22;11729;50.836;4.330;2023-08-01T13:46:16;26.30;92.50
23120;DHT22;11729;50.836;4.330;2023-08-01T13:48:43;25.80;93.50
23120;DHT22;11729;50.836;4.330;2023-08-01T13:51:09;26.20;95.70
23120;DHT22;11729;50.836;4.330;2023-08-01T13:53:35;26.20;94.10
23120;DHT22;11729;50.836;4.330;2023-08-01T13:56:07;25.50;95.10
23120;DHT22;11729;50.836;4.330;2023-08-01T13:58:33;25.40;96.60
23120;DHT22;11729;50.836;4.330;2023-08-01T14:01:05;25.30;96.00
23120;DHT22;11729;50.836;4.330;2023-08-01T14:03:33;25.00;96.60
23120;DHT22;11729;50.836;4.330;2023-08-01T14:06:09;24.70;97.80
23120;DHT22;11729;50.836;4.330;2023-08-01T14:08:35;24.30;98.80
23120;DHT22;11729;50.836;4.330;2023-08-01T14:11:03;23.80;99.90
23120;DHT22;11729;50.836;4.330;2023-08-01T14:13:29;23.50;99.90
23120;DHT22;11729;50.836;4.330;2023-08-01T14:15:54;23.30;99.70
23120;DHT22;11729;50.836;4.330;2023-08-01T14:18:20;23.20;99.90
23120;DHT22;11729;50.836;4.330;2023-08-01T14:20:46;23.00;99.90
23120;DHT22;11729;50.836;4.330;2023-08-01T14:23:12;22.60;99.90
23120;DHT22;11729;50.836;4.330;2023-08-01T14:25:38;22.20;99.90
23120;DHT22;11729;50.836;4.330;2023-08-01T14:28:04;22.20;99.90
23120;DHT22;11729;50.836;4.330;2023-08-01T14:30:29;22.00;99.90
23120;DHT22;11729;50.836;4.330;2023-08-01T14:33:02;21.90;99.90
23120;DHT22;11729;50.836;4.330;2023-08-01T14:35:28;21.80;99.90
23120;DHT22;11729;50.836;4.330;2023-08-01T14:37:54;21.90;99.90
23120;DHT22;11729;50.836;4.330;2023-08-01T14:40:24;21.80;99.90
23120;DHT22;11729;50.836;4.330;2023-08-01T14:42:50;22.00;99.90
23120;DHT22;11729;50.836;4.330;2023-08-01T14:45:16;21.90;99.90
23120;DHT22;11729;50.836;4.330;2023-08-01T14:47:42;22.10;99.90
23120;DHT22;11729;50.836;4.330;2023-08-01T14:50:09;22.10;99.90
23120;DHT22;11729;50.836;4.330;2023-08-01T14:52:35;22.30;99.90
23120;DHT22;11729;50.836;4.330;2023-08-01T14:55:01;22.30;99.90
23120;DHT22;11729;50.836;4.330;2023-08-01T14:57:27;22.20;99.90
23120;DHT22;11729;50.836;4.330;2023-08-01T14:59:53;22.20;99.90
23120;DHT22;11729;50.836;4.330;2023-08-01T15:02:19;22.10;99.90
23120;DHT22;11729;50.836;4.330;2023-08-01T15:04:45;22.10;99.90
23120;DHT22;11729;50.836;4.330;2023-08-01T15:07:10;22.10;99.90
23120;DHT22;11729;50.836;4.330;2023-08-01T15:09:36;22.00;99.90
23120;DHT22;11729;50.836;4.330;2023-08-01T15:12:02;21.80;99.90
23120;DHT22;11729;50.836;4.330;2023-08-01T15:14:27;21.70;99.90
23120;DHT22;11729;50.836;4.330;2023-08-01T15:16:53;21.90;99.90
23120;DHT22;11729;50.836;4.330;2023-08-01T15:19:19;21.70;99.90
23120;DHT22;11729;50.836;4.330;2023-08-01T15:21:45;21.60;99.90
23120;DHT22;11729;50.836;4.330;2023-08-01T15:24:11;21.80;99.90
23120;DHT22;11729;50.836;4.330;2023-08-01T15:26:37;21.50;99.90
23120;DHT22;11729;50.836;4.330;2023-08-01T15:29:02;21.40;99.90